Mayersville, Mississippi
Current Conditions -  °F | °C
As of 10:53 PM on Saturday 20 Dec 2014 (Local Time) from KTVR Reporting Station
Clear Clear  
Wind Chill: 39°   Ceiling: Unl
Heat Index: 43°   Visibility: 10mi
Dew Point: 38°   Wind: 7mph
Humidity: 82%   Direction: 40°NE
Pressure: 30.21"   Gusts: NA
Location:  32.9°N, 91.05°W
Report Text: KTVR 210453Z AUTO 04006KT 10SM CLR 06/03 A3021 RMK AO2 SLP237 T00610033
Loading
Personal Weather Stations






























Interactive Weather Map New forecast layout! Learn more

10-Day Weather Forecast

Advertisements
Track Severe Weather on mobile